Time;durP1;ratioP1;P1;durP2;ratioP2;P2;SDS_P1;SDS_P2;PMS_P1;PMS_P2;Temp;Humidity;BMP_temperature;BMP_pressure;BME280_temperature;BME280_humidity;BME280_pressure;Samples;Min_cycle;Max_cycle;Signal;HPM_P1;HPM_P2
2022/06/14 04:52:29;;;;;;;;;;;13.60;66.80;;;;;;4953384;28;19973;-73
2022/06/14 04:55:08;;;;;;;;;;;13.60;66.30;;;;;;4929002;29;20002;-72
2022/06/14 04:57:37;;;;;;;;;;;13.60;66.20;;;;;;4936982;29;19911;-72
2022/06/14 05:00:06;;;;;;;;;;;13.60;65.70;;;;;;4919998;29;19969;-72
2022/06/14 05:02:35;;;;;;;;;;;13.70;65.70;;;;;;4955312;29;19917;-72
2022/06/14 05:05:05;;;;;;;;;;;13.70;65.80;;;;;;4938574;29;19913;-72
2022/06/14 05:07:37;;;;;;;;;;;13.70;65.70;;;;;;4955626;28;19958;-71
2022/06/14 05:10:14;;;;;;;;;;;13.70;65.70;;;;;;4955664;29;19906;-71
2022/06/14 05:12:43;;;;;;;;;;;13.70;66.00;;;;;;4935756;29;19918;-72
2022/06/14 05:15:14;;;;;;;;;;;13.70;66.10;;;;;;4911646;29;19910;-72
2022/06/14 05:17:44;;;;;;;;;;;13.70;66.00;;;;;;4938005;29;19906;-72
2022/06/14 05:20:14;;;;;;;;;;;13.70;66.40;;;;;;4955544;29;19914;-72
2022/06/14 05:22:49;;;;;;;;;;;13.70;66.30;;;;;;4938338;29;19910;-72
2022/06/14 05:25:15;;;;;;;;;;;13.70;66.30;;;;;;4955571;29;19911;-72
2022/06/14 05:27:57;;;;;;;;;;;13.70;66.40;;;;;;4955220;28;19916;-72
2022/06/14 05:30:37;;;;;;;;;;;13.70;66.40;;;;;;4954982;29;19911;-73
2022/06/14 05:33:26;;;;;;;;;;;13.70;66.40;;;;;;4954698;28;19907;-72
2022/06/14 05:35:57;;;;;;;;;;;13.80;66.70;;;;;;4938139;28;19914;-73
2022/06/14 05:38:32;;;;;;;;;;;13.70;66.80;;;;;;4938128;29;19937;-72
2022/06/14 05:41:03;;;;;;;;;;;13.70;66.90;;;;;;4936267;29;19918;-70
2022/06/14 05:43:44;;;;;;;;;;;13.70;67.00;;;;;;4937548;29;19921;-70
2022/06/14 05:46:25;;;;;;;;;;;13.70;67.20;;;;;;4929167;29;19929;-70
2022/06/14 05:48:53;;;;;;;;;;;13.70;67.30;;;;;;4951231;28;19911;-70
2022/06/14 05:51:22;;;;;;;;;;;13.70;67.40;;;;;;4949008;28;19949;-65
2022/06/14 05:53:50;;;;;;;;;;;13.70;67.50;;;;;;4970939;28;20639;-65
2022/06/14 05:56:23;;;;;;;;;;;13.70;67.70;;;;;;4977174;28;19910;-66
2022/06/14 05:59:15;;;;;;;;;;;13.70;68.70;;;;;;4965831;28;20004;-68
2022/06/14 06:01:46;;;;;;;;;;;13.70;69.30;;;;;;4924051;29;19961;-72
2022/06/14 06:04:16;;;;;;;;;;;13.70;70.40;;;;;;4963518;28;20369;-72
2022/06/14 06:06:56;;;;;;;;;;;13.70;70.60;;;;;;5095795;27;20267;-71
2022/06/14 06:09:25;;;;;;;;;;;13.70;71.30;;;;;;5097349;28;19919;-71
2022/06/14 06:11:52;;;;;;;;;;;13.70;71.70;;;;;;5090574;28;19909;-72
2022/06/14 06:14:29;;;;;;;;;;;13.70;72.10;;;;;;5088173;28;19919;-71
2022/06/14 06:17:04;;;;;;;;;;;13.70;72.80;;;;;;5088979;28;19909;-71
2022/06/14 06:19:36;;;;;;;;;;;13.70;73.50;;;;;;5088275;28;19958;-71
2022/06/14 06:22:06;;;;;;;;;;;13.70;73.60;;;;;;5092524;28;20006;-71
2022/06/14 06:25:02;;;;;;;;;;;13.70;73.80;;;;;;5087936;28;19917;-71
2022/06/14 06:27:33;;;;;;;;;;;13.60;74.40;;;;;;5082261;28;20281;-71
2022/06/14 06:30:15;;;;;;;;;;;13.60;74.50;;;;;;5088017;28;20318;-71
2022/06/14 06:32:42;;;;;;;;;;;13.60;75.10;;;;;;5088029;28;19913;-71
2022/06/14 06:35:09;;;;;;;;;;;13.60;75.40;;;;;;5079639;28;19908;-71
2022/06/14 06:37:41;;;;;;;;;;;13.60;75.70;;;;;;5093201;28;19912;-71
2022/06/14 06:40:23;;;;;;;;;;;13.50;75.80;;;;;;5090153;28;19962;-71
2022/06/14 06:42:59;;;;;;;;;;;13.50;76.00;;;;;;5094782;28;20370;-71
2022/06/14 06:45:36;;;;;;;;;;;13.40;76.20;;;;;;5086756;28;20292;-71
2022/06/14 06:48:08;;;;;;;;;;;13.40;76.30;;;;;;5100073;28;20389;-73
2022/06/14 06:50:41;;;;;;;;;;;13.40;76.50;;;;;;5088243;28;19916;-71
2022/06/14 06:53:12;;;;;;;;;;;13.30;76.70;;;;;;5103384;28;19912;-72
2022/06/14 06:55:57;;;;;;;;;;;13.30;76.90;;;;;;5098244;28;19970;-71
2022/06/14 06:58:27;;;;;;;;;;;13.30;77.30;;;;;;5088067;28;19912;-71
2022/06/14 07:00:58;;;;;;;;;;;13.30;77.30;;;;;;5090048;28;19922;-67
2022/06/14 07:03:42;;;;;;;;;;;13.30;77.60;;;;;;5099616;28;19935;-67
2022/06/14 10:41:31;;;;;;;;;;;11.90;84.00;;;;;;5078893;28;19935;-66
2022/06/14 10:44:03;;;;;;;;;;;11.90;83.60;;;;;;5092306;28;19963;-67
2022/06/14 10:46:31;;;;;;;;;;;11.80;83.70;;;;;;5081770;28;19931;-69
2022/06/14 10:49:01;;;;;;;;;;;11.70;83.60;;;;;;5078946;28;19923;-69
2022/06/14 10:51:41;;;;;;;;;;;11.70;83.70;;;;;;5096086;28;20313;-68
2022/06/14 10:54:17;;;;;;;;;;;11.70;83.90;;;;;;5083833;28;19919;-66
2022/06/14 10:57:02;;;;;;;;;;;11.70;84.20;;;;;;5097069;28;20027;-66
2022/06/14 10:59:31;;;;;;;;;;;11.70;84.30;;;;;;5104810;27;19978;-69
2022/06/14 11:02:03;;;;;;;;;;;11.70;84.30;;;;;;5107683;28;19912;-68
2022/06/14 11:04:48;;;;;;;;;;;11.70;84.40;;;;;;5090366;28;19918;-68
2022/06/14 11:07:33;;;;;;;;;;;11.70;84.10;;;;;;5107102;27;19923;-67
2022/06/14 11:10:15;;;;;;;;;;;11.70;83.90;;;;;;5098839;27;19907;-67
2022/06/14 11:12:54;;;;;;;;;;;11.70;83.70;;;;;;5081486;27;20286;-69
2022/06/14 11:15:31;;;;;;;;;;;11.70;83.70;;;;;;5103621;28;20018;-67
2022/06/14 11:18:06;;;;;;;;;;;11.80;83.70;;;;;;5120346;27;20389;-68
2022/06/14 11:20:38;;;;;;;;;;;11.80;83.80;;;;;;5087057;28;19919;-68
2022/06/14 11:23:06;;;;;;;;;;;11.70;84.00;;;;;;5109475;27;20400;-68
2022/06/14 11:25:53;;;;;;;;;;;11.70;84.20;;;;;;5100161;27;19916;-67
2022/06/14 11:28:35;;;;;;;;;;;11.70;84.40;;;;;;5099174;28;19916;-68
2022/06/14 11:31:02;;;;;;;;;;;11.70;84.40;;;;;;5090102;28;19915;-67
2022/06/14 11:33:45;;;;;;;;;;;11.70;84.00;;;;;;5098249;28;19967;-65
2022/06/14 11:36:11;;;;;;;;;;;11.70;83.60;;;;;;5095930;28;19916;-65
2022/06/14 11:38:41;;;;;;;;;;;11.80;83.50;;;;;;5098764;28;19924;-67
2022/06/14 11:41:08;;;;;;;;;;;11.80;83.30;;;;;;5103430;28;19927;-68
2022/06/14 11:43:34;;;;;;;;;;;11.70;83.00;;;;;;5116034;27;19954;-69
2022/06/14 11:46:01;;;;;;;;;;;11.70;83.10;;;;;;5104956;28;19927;-68
2022/06/14 11:48:33;;;;;;;;;;;11.70;82.90;;;;;;5098580;28;20006;-67
2022/06/14 11:51:01;;;;;;;;;;;11.70;83.10;;;;;;5103116;28;19908;-66
2022/06/14 11:53:48;;;;;;;;;;;11.60;83.30;;;;;;5082830;28;19998;-66
2022/06/14 11:56:17;;;;;;;;;;;11.70;83.30;;;;;;5059420;28;19916;-66
2022/06/14 11:59:07;;;;;;;;;;;11.70;83.30;;;;;;5108132;28;20624;-66
2022/06/14 12:01:37;;;;;;;;;;;11.60;83.50;;;;;;5074706;28;19916;-67
2022/06/14 12:04:07;;;;;;;;;;;11.60;83.40;;;;;;5104397;27;20530;-67
2022/06/14 12:06:38;;;;;;;;;;;11.50;83.40;;;;;;5092618;28;19919;-66
2022/06/14 12:09:22;;;;;;;;;;;11.50;83.20;;;;;;5099130;28;19912;-66
2022/06/14 12:11:51;;;;;;;;;;;11.60;83.00;;;;;;5104670;27;19911;-66
2022/06/14 12:14:44;;;;;;;;;;;11.50;82.70;;;;;;5083090;28;19974;-66
2022/06/14 12:17:20;;;;;;;;;;;11.50;82.70;;;;;;5098287;28;19916;-67
2022/06/14 12:19:59;;;;;;;;;;;11.50;82.60;;;;;;5097809;28;19919;-66
2022/06/14 12:22:52;;;;;;;;;;;11.40;82.80;;;;;;5096736;28;19912;-67
2022/06/14 12:28:25;;;;;;;;;;;11.40;83.00;;;;;;5100382;27;19926;-66
2022/06/14 12:30:52;;;;;;;;;;;11.30;83.40;;;;;;5101885;27;19922;-67
2022/06/14 12:33:27;;;;;;;;;;;11.30;83.50;;;;;;5081699;28;19982;-66
2022/06/14 12:35:55;;;;;;;;;;;11.30;83.30;;;;;;5123120;27;20297;-66
2022/06/14 12:38:24;;;;;;;;;;;11.20;83.10;;;;;;5107856;28;20007;-66
2022/06/14 12:40:52;;;;;;;;;;;11.20;82.70;;;;;;5095452;27;20362;-65
2022/06/14 12:43:18;;;;;;;;;;;11.20;82.70;;;;;;5087402;27;20338;-65
2022/06/14 12:45:45;;;;;;;;;;;11.20;82.50;;;;;;5105694;28;20006;-68
2022/06/14 12:48:12;;;;;;;;;;;11.20;82.10;;;;;;5105153;28;19912;-68
2022/06/14 12:50:40;;;;;;;;;;;11.20;82.20;;;;;;5099775;27;19911;-68
2022/06/14 12:53:36;;;;;;;;;;;11.20;82.20;;;;;;5118003;27;20358;-68
2022/06/14 12:56:06;;;;;;;;;;;11.10;82.20;;;;;;5093598;27;19943;-68
2022/06/14 12:58:42;;;;;;;;;;;11.10;82.00;;;;;;5095417;28;19911;-68
2022/06/14 13:01:27;;;;;;;;;;;11.10;81.70;;;;;;5094549;28;19999;-68
2022/06/14 13:04:09;;;;;;;;;;;11.10;81.50;;;;;;5100044;28;19916;-67
2022/06/14 13:06:53;;;;;;;;;;;11.10;81.40;;;;;;5099543;28;19920;-67
2022/06/14 13:09:31;;;;;;;;;;;11.10;81.40;;;;;;5099274;28;19916;-68
2022/06/14 13:12:01;;;;;;;;;;;11.00;81.30;;;;;;5104628;27;19957;-69
2022/06/14 13:14:32;;;;;;;;;;;11.00;81.50;;;;;;5104853;27;20265;-68
2022/06/14 13:17:09;;;;;;;;;;;11.00;81.80;;;;;;5100408;28;20286;-68
2022/06/14 13:19:43;;;;;;;;;;;10.90;82.00;;;;;;5074270;28;19912;-68
2022/06/14 13:22:19;;;;;;;;;;;10.80;82.10;;;;;;5117577;27;19918;-69
2022/06/14 13:24:52;;;;;;;;;;;10.90;82.30;;;;;;5105820;27;20049;-68
2022/06/14 13:27:23;;;;;;;;;;;10.80;82.50;;;;;;5106975;27;19916;-68
2022/06/14 13:29:55;;;;;;;;;;;10.80;82.80;;;;;;5123275;27;19942;-69
2022/06/14 13:32:40;;;;;;;;;;;10.70;83.10;;;;;;5111569;27;20008;-68
2022/06/14 13:35:16;;;;;;;;;;;10.70;83.20;;;;;;5114858;27;19919;-68
2022/06/14 13:37:43;;;;;;;;;;;10.70;83.50;;;;;;5118358;27;19911;-67
2022/06/14 13:40:15;;;;;;;;;;;10.70;83.50;;;;;;5102492;27;19911;-68
2022/06/14 13:42:42;;;;;;;;;;;10.70;83.40;;;;;;5113763;27;19920;-68
2022/06/14 13:45:14;;;;;;;;;;;10.70;83.50;;;;;;5110569;27;19995;-68
2022/06/14 13:48:16;;;;;;;;;;;10.70;83.60;;;;;;5090966;28;19916;-67
2022/06/14 13:50:45;;;;;;;;;;;10.60;83.50;;;;;;5106469;28;19912;-67
2022/06/14 13:53:12;;;;;;;;;;;10.60;83.70;;;;;;5118769;27;19938;-69
2022/06/14 13:55:43;;;;;;;;;;;10.60;83.60;;;;;;5091896;28;19970;-68
2022/06/14 13:58:12;;;;;;;;;;;10.50;83.80;;;;;;5073660;28;19912;-67
2022/06/14 14:00:48;;;;;;;;;;;10.50;83.80;;;;;;5081496;28;19935;-69
2022/06/14 14:03:30;;;;;;;;;;;10.50;83.70;;;;;;5095705;28;19911;-68
2022/06/14 14:06:00;;;;;;;;;;;10.40;83.60;;;;;;5111293;28;19916;-67
2022/06/14 14:08:35;;;;;;;;;;;10.40;83.80;;;;;;5094179;28;19916;-67
2022/06/14 14:11:19;;;;;;;;;;;10.30;83.70;;;;;;5094428;28;19951;-68
2022/06/14 14:14:06;;;;;;;;;;;10.30;83.80;;;;;;5110572;28;21031;-67
2022/06/14 14:16:38;;;;;;;;;;;10.20;83.80;;;;;;5092356;28;19975;-67
2022/06/14 14:19:04;;;;;;;;;;;10.30;83.90;;;;;;5093549;28;20024;-67
2022/06/14 14:21:44;;;;;;;;;;;10.30;83.80;;;;;;5112508;28;19920;-68
2022/06/14 14:24:29;;;;;;;;;;;10.30;83.70;;;;;;5102177;28;20373;-68
2022/06/14 14:26:56;;;;;;;;;;;10.30;83.60;;;;;;5090080;28;20380;-67
2022/06/14 14:29:29;;;;;;;;;;;10.30;83.60;;;;;;5094820;28;20003;-68
2022/06/14 14:31:56;;;;;;;;;;;10.30;83.50;;;;;;5094392;28;19908;-68
2022/06/14 14:34:23;;;;;;;;;;;10.30;83.40;;;;;;5100739;27;19916;-67
2022/06/14 14:36:58;;;;;;;;;;;10.30;83.40;;;;;;5094659;28;19931;-67
2022/06/14 14:39:31;;;;;;;;;;;10.30;83.30;;;;;;5095798;28;19966;-68
2022/06/14 14:41:57;;;;;;;;;;;10.30;83.30;;;;;;5101049;27;20396;-68
2022/06/14 14:44:36;;;;;;;;;;;10.30;83.20;;;;;;5100973;27;19965;-67
2022/06/14 14:47:07;;;;;;;;;;;10.30;83.30;;;;;;5097962;28;19916;-67
2022/06/14 14:49:49;;;;;;;;;;;10.20;83.30;;;;;;5109589;28;19912;-67
2022/06/14 14:52:19;;;;;;;;;;;10.20;83.40;;;;;;5094059;28;19916;-68
2022/06/14 14:54:45;;;;;;;;;;;10.20;83.30;;;;;;5111270;27;19919;-67
2022/06/14 14:57:14;;;;;;;;;;;10.20;83.60;;;;;;5096905;27;19912;-68
2022/06/14 14:59:46;;;;;;;;;;;10.00;83.70;;;;;;5095016;28;20008;-68
2022/06/14 15:05:21;;;;;;;;;;;9.90;84.30;;;;;;5115102;27;19962;-69
2022/06/14 15:08:11;;;;;;;;;;;10.00;84.40;;;;;;5100441;28;19916;-69
2022/06/14 15:10:55;;;;;;;;;;;9.90;84.60;;;;;;5100579;28;19911;-69
2022/06/14 15:13:32;;;;;;;;;;;9.90;84.60;;;;;;5123340;27;19911;-68
2022/06/14 15:15:59;;;;;;;;;;;9.90;84.60;;;;;;5115049;27;19923;-69
2022/06/14 15:21:37;;;;;;;;;;;9.80;84.50;;;;;;5096858;27;19957;-69
2022/06/14 15:24:05;;;;;;;;;;;9.90;84.60;;;;;;5125085;27;19911;-69
2022/06/14 15:26:32;;;;;;;;;;;9.90;84.60;;;;;;5114675;28;20450;-69
2022/06/14 15:29:00;;;;;;;;;;;9.90;84.70;;;;;;5117300;27;20290;-70
2022/06/14 15:31:26;;;;;;;;;;;9.90;84.50;;;;;;5108073;27;20281;-69
2022/06/14 15:33:53;;;;;;;;;;;9.90;84.50;;;;;;5129199;27;20321;-69
2022/06/14 15:36:33;;;;;;;;;;;9.90;84.50;;;;;;5115342;27;20381;-70
2022/06/14 15:39:06;;;;;;;;;;;9.90;84.80;;;;;;5095733;28;19912;-69
2022/06/14 15:41:34;;;;;;;;;;;9.80;84.80;;;;;;5114168;28;20288;-69
2022/06/14 15:44:02;;;;;;;;;;;9.80;84.80;;;;;;5114284;28;19926;-69
2022/06/14 15:46:30;;;;;;;;;;;9.80;84.70;;;;;;5097926;28;19920;-67
2022/06/14 15:49:15;;;;;;;;;;;9.70;84.70;;;;;;5113720;27;19918;-69
2022/06/14 15:51:42;;;;;;;;;;;9.70;84.60;;;;;;5085815;28;20366;-69
2022/06/14 15:54:28;;;;;;;;;;;9.70;84.50;;;;;;5103323;28;20476;-70
2022/06/14 15:57:04;;;;;;;;;;;9.70;84.50;;;;;;5111306;27;19912;-70
2022/06/14 15:59:40;;;;;;;;;;;9.70;84.50;;;;;;5095380;27;19915;-69
2022/06/14 16:02:27;;;;;;;;;;;9.60;84.30;;;;;;5077386;27;19912;-69
2022/06/14 16:04:56;;;;;;;;;;;9.60;84.50;;;;;;5091088;28;19912;-69
2022/06/14 16:07:29;;;;;;;;;;;9.60;84.50;;;;;;5111655;27;20534;-69
2022/06/14 16:10:22;;;;;;;;;;;9.50;84.70;;;;;;5091308;28;19958;-69
2022/06/14 16:12:53;;;;;;;;;;;9.50;84.30;;;;;;5086131;27;20328;-69
2022/06/14 16:15:23;;;;;;;;;;;9.40;84.50;;;;;;5095072;27;19923;-69
2022/06/14 16:17:49;;;;;;;;;;;9.40;84.70;;;;;;5126919;27;20011;-70
2022/06/14 16:20:25;;;;;;;;;;;9.30;84.70;;;;;;5095424;27;19922;-69
2022/06/14 16:22:59;;;;;;;;;;;9.30;84.90;;;;;;5113473;27;19911;-70
2022/06/14 16:25:39;;;;;;;;;;;9.30;84.90;;;;;;5108565;27;19934;-69
2022/06/14 16:28:12;;;;;;;;;;;9.30;85.10;;;;;;5086650;28;19912;-69
2022/06/14 16:30:48;;;;;;;;;;;9.20;84.90;;;;;;5096163;28;19916;-69
2022/06/14 16:33:21;;;;;;;;;;;9.20;85.00;;;;;;5088624;28;19992;-70
2022/06/14 16:35:50;;;;;;;;;;;9.20;85.00;;;;;;5115254;27;19994;-69
2022/06/14 16:38:38;;;;;;;;;;;9.20;85.20;;;;;;5107854;27;20362;-69
2022/06/14 16:41:08;;;;;;;;;;;9.20;85.40;;;;;;5086052;28;19916;-69
2022/06/14 16:43:40;;;;;;;;;;;9.20;85.10;;;;;;5109025;27;19917;-69
2022/06/14 16:46:35;;;;;;;;;;;9.20;85.30;;;;;;5113449;27;20365;-69
2022/06/14 16:49:09;;;;;;;;;;;9.10;85.00;;;;;;5095343;27;19912;-69
2022/06/14 16:51:42;;;;;;;;;;;9.10;85.20;;;;;;5112044;28;19923;-70
2022/06/14 16:54:18;;;;;;;;;;;9.10;85.00;;;;;;5089132;28;19918;-69
2022/06/14 16:56:47;;;;;;;;;;;9.00;85.20;;;;;;5115939;27;19912;-70
2022/06/14 16:59:14;;;;;;;;;;;9.00;85.10;;;;;;5106443;28;19997;-70
2022/06/14 17:01:43;;;;;;;;;;;9.00;85.30;;;;;;5108980;27;19916;-69
2022/06/14 17:04:24;;;;;;;;;;;9.00;85.20;;;;;;5090313;28;20384;-69
2022/06/14 17:06:54;;;;;;;;;;;9.10;85.30;;;;;;5109886;27;19923;-69
2022/06/14 17:09:25;;;;;;;;;;;9.00;85.20;;;;;;5111035;27;20375;-70
2022/06/14 17:12:04;;;;;;;;;;;9.10;85.10;;;;;;5096197;28;19908;-70
2022/06/14 17:14:37;;;;;;;;;;;9.10;85.00;;;;;;5104743;27;20297;-69
2022/06/14 17:17:08;;;;;;;;;;;9.00;84.90;;;;;;5113188;27;20361;-69
2022/06/14 17:19:47;;;;;;;;;;;8.90;85.30;;;;;;5081535;28;20026;-70
2022/06/14 17:22:23;;;;;;;;;;;8.90;85.20;;;;;;5112842;27;19957;-69
2022/06/14 17:24:52;;;;;;;;;;;8.80;85.50;;;;;;5102524;28;20414;-70
2022/06/14 18:15:31;;;;;;;;;;;8.70;85.90;;;;;;5101021;28;20486;-68
2022/06/14 18:17:57;;;;;;;;;;;8.70;85.90;;;;;;5034427;28;19961;-68
2022/06/14 18:23:10;;;;;;;;;;;8.60;86.00;;;;;;5045952;28;20025;-68
2022/06/14 18:25:59;;;;;;;;;;;8.50;86.20;;;;;;5017358;28;20395;-69
2022/06/14 18:28:39;;;;;;;;;;;8.50;86.30;;;;;;5042487;28;20317;-68
2022/06/14 18:31:25;;;;;;;;;;;8.40;86.40;;;;;;5027909;28;19919;-68
2022/06/14 18:33:55;;;;;;;;;;;8.40;86.60;;;;;;5031523;28;19913;-69
2022/06/14 18:36:22;;;;;;;;;;;8.20;86.50;;;;;;5027286;28;19918;-68
2022/06/14 18:38:52;;;;;;;;;;;8.20;86.70;;;;;;5037017;28;20267;-68
2022/06/14 18:41:26;;;;;;;;;;;8.20;86.80;;;;;;5029970;28;19917;-68
2022/06/14 18:44:08;;;;;;;;;;;8.20;86.80;;;;;;5040876;28;19967;-68
2022/06/14 18:46:37;;;;;;;;;;;8.20;86.90;;;;;;5037726;28;19935;-68
2022/06/14 18:49:04;;;;;;;;;;;8.20;86.90;;;;;;5047928;28;19920;-69
2022/06/14 18:51:32;;;;;;;;;;;8.20;86.70;;;;;;5044506;28;19913;-68
2022/06/14 18:54:00;;;;;;;;;;;8.10;86.90;;;;;;5042652;28;20311;-68
2022/06/14 18:56:29;;;;;;;;;;;8.10;86.80;;;;;;5027397;28;19992;-68
2022/06/14 18:59:07;;;;;;;;;;;8.20;86.90;;;;;;5019676;28;20287;-68
2022/06/14 19:01:34;;;;;;;;;;;8.10;86.70;;;;;;5025424;28;19916;-68
2022/06/14 19:04:04;;;;;;;;;;;8.20;86.80;;;;;;5043449;28;19956;-68
2022/06/14 19:06:48;;;;;;;;;;;8.10;86.80;;;;;;5038026;28;19929;-68
2022/06/14 19:09:20;;;;;;;;;;;8.10;86.80;;;;;;5042196;28;19913;-68
2022/06/14 19:12:02;;;;;;;;;;;8.10;86.70;;;;;;5020818;28;20008;-68
2022/06/14 19:14:31;;;;;;;;;;;8.10;86.70;;;;;;5036389;28;20007;-69
2022/06/14 21:50:22;;;;;;;;;;;8.00;86.30;;;;;;5104026;28;20893;-71
2022/06/14 21:52:49;;;;;;;;;;;8.10;86.30;;;;;;5060943;28;19924;-72
2022/06/14 21:55:15;;;;;;;;;;;8.10;86.50;;;;;;5048611;28;20283;-72
2022/06/14 21:57:43;;;;;;;;;;;8.20;86.20;;;;;;5069450;28;20000;-72
2022/06/14 22:00:11;;;;;;;;;;;8.20;86.00;;;;;;5046655;28;19952;-71
2022/06/14 22:02:48;;;;;;;;;;;8.20;86.10;;;;;;5044449;28;19923;-71
2022/06/14 22:05:14;;;;;;;;;;;8.30;86.10;;;;;;5063076;28;20260;-71
2022/06/14 22:07:43;;;;;;;;;;;8.30;86.00;;;;;;5048978;28;20353;-73
2022/06/14 22:10:10;;;;;;;;;;;8.30;86.00;;;;;;5067881;28;20031;-72
2022/06/14 22:12:36;;;;;;;;;;;8.40;85.90;;;;;;5038357;28;20375;-72
2022/06/14 22:15:07;;;;;;;;;;;8.40;85.90;;;;;;5062599;28;19955;-71
2022/06/14 22:17:34;;;;;;;;;;;8.40;85.80;;;;;;5061374;28;20034;-71
2022/06/14 22:20:00;;;;;;;;;;;8.40;85.80;;;;;;5039284;28;19920;-71
2022/06/14 22:22:27;;;;;;;;;;;8.50;85.60;;;;;;5071224;28;19916;-71
2022/06/14 22:24:53;;;;;;;;;;;8.50;85.60;;;;;;5057002;28;19909;-72
2022/06/14 22:27:21;;;;;;;;;;;8.60;85.60;;;;;;5068857;28;20454;-72
2022/06/14 22:29:49;;;;;;;;;;;8.60;85.70;;;;;;5054073;28;19908;-71
2022/06/14 22:32:15;;;;;;;;;;;8.70;85.20;;;;;;5036972;28;19912;-72
2022/06/14 22:34:43;;;;;;;;;;;8.70;85.20;;;;;;5053850;28;19909;-72
2022/06/14 22:37:09;;;;;;;;;;;8.70;84.90;;;;;;5071022;28;19908;-72
2022/06/14 22:39:36;;;;;;;;;;;8.80;85.00;;;;;;5071715;28;19912;-70
2022/06/14 22:42:03;;;;;;;;;;;8.80;85.00;;;;;;5053966;28;20274;-71
2022/06/14 22:44:29;;;;;;;;;;;8.90;84.90;;;;;;5057943;28;19919;-71
2022/06/14 22:46:58;;;;;;;;;;;8.90;84.80;;;;;;5071603;28;19956;-70
2022/06/14 22:49:25;;;;;;;;;;;9.00;84.70;;;;;;5074437;28;19950;-70
